Hana — 2BCV4 — position and weather

sailwx.info

Track history (hours):
 
Tides and Currents Weather Stations Pressure Air Temp Water Temp Dewpoint Dewpoint Depression Visibility Wind Speed Wind Dir Waves Ship Positions

Hana

Last reported at 2014-Jul-20 14:26 UTC. Time now 2014-Aug-22 09:55 UTC.
Position N 38°15' E 015°43'.
Warning: this ship's position is 32 days out of date.

Length 43 m; draft 2.7 m.

Type: Pleasure craft. MMSI: 235065022.

Date/timePositionNaut miles runAvg speedWind from/ knotsBaromVisibWave heightAir tempDewpointWater temp
2014-Jul-20 14:26N 38°15' E 015°43'1111.7
2014-Jul-20 13:29N 38°19' E 015°30'  
2014-Jul-18 01:32N 40°28' E 014°33'9 3.6
2014-Jul-17 23:03N 40°37' E 014°30'610.1
2014-Jul-17 22:28N 40°35' E 014°22'6 7.1
2014-Jul-17 21:33N 40°34' E 014°14'0 0.0
2014-Jul-17 20:33N 40°34' E 014°14'0 0.0
2014-Jul-17 19:33N 40°34' E 014°14'0 0.0
2014-Jul-17 18:33N 40°34' E 014°14'0 0.0
2014-Jul-17 17:33N 40°34' E 014°14'0 0.0
2014-Jul-17 16:33N 40°34' E 014°14'0 0.0
2014-Jul-17 15:33N 40°34' E 014°14'0 0.0
2014-Jul-17 14:33N 40°34' E 014°14'0 0.0
2014-Jul-17 13:33N 40°34' E 014°14'0 0.0
2014-Jul-17 12:33N 40°34' E 014°14'0 0.0
2014-Jul-17 11:34N 40°34' E 014°14'0 0.1
2014-Jul-17 10:33N 40°34' E 014°14'1 0.5
2014-Jul-17 09:33N 40°34' E 014°14'2 1.9
2014-Jul-17 08:33N 40°32' E 014°13'0 0.0
2014-Jul-17 07:33N 40°32' E 014°13'5 0.4
2014-Jul-16 16:33N 40°36' E 014°08'1010.0
2014-Jul-16 15:33N 40°44' E 014°00'0 0.3
2014-Jul-16 14:32N 40°45' E 014°00'0 0.0
2014-Jul-16 13:32N 40°45' E 014°00'0 0.0
2014-Jul-16 12:29N 40°45' E 014°00'0 0.0
2014-Jul-16 11:29N 40°45' E 014°00'0 0.0
2014-Jul-16 10:29N 40°45' E 014°00'1 1.2
2014-Jul-16 09:33N 40°44' E 013°59'4 3.8
2014-Jul-16 08:23N 40°45' E 013°53'0 0.0
2014-Jul-16 07:17N 40°45' E 013°53'0 0.0
2014-Jul-16 06:26N 40°45' E 013°53'0 0.0
2014-Jul-16 05:26N 40°45' E 013°53'0 0.0
2014-Jul-16 04:32N 40°45' E 013°53'0 0.0
2014-Jul-16 03:32N 40°45' E 013°53'0 0.0
2014-Jul-16 02:32N 40°45' E 013°53'0 0.0
2014-Jul-16 01:32N 40°45' E 013°53'0 0.0
2014-Jul-16 00:32N 40°45' E 013°53'0 0.0
2014-Jul-15 23:33N 40°45' E 013°53'1 0.8
2014-Jul-15 22:23N 40°46' E 013°52'0 0.0
2014-Jul-15 21:32N 40°46' E 013°52'0 0.1
2014-Jul-15 20:33N 40°46' E 013°52'1 0.7
2014-Jul-15 19:26N 40°45' E 013°53'0 0.0
2014-Jul-15 18:32N 40°45' E 013°53'0 0.0
2014-Jul-15 17:32N 40°45' E 013°53'0 0.0
2014-Jul-15 16:32N 40°45' E 013°53'0 0.0
2014-Jul-15 15:32N 40°45' E 013°53'0 0.0
2014-Jul-15 14:32N 40°45' E 013°53'0 0.0
2014-Jul-15 13:32N 40°45' E 013°53'0 0.0
2014-Jul-15 12:32N 40°45' E 013°53'0 0.0
2014-Jul-15 11:32N 40°45' E 013°53'0 0.0
2014-Jul-15 10:29N 40°45' E 013°53'0 0.0
2014-Jul-15 09:32N 40°45' E 013°53'2 1.8
2014-Jul-15 08:33N 40°45' E 013°56'1 0.8
2014-Jul-15 07:26N 40°45' E 013°57'0 0.0
2014-Jul-15 06:32N 40°45' E 013°57'0 0.0
2014-Jul-15 05:29N 40°45' E 013°57'0 0.0
2014-Jul-15 04:32N 40°45' E 013°57'0 0.0
2014-Jul-15 03:26N 40°45' E 013°57'0 0.0
2014-Jul-15 02:32N 40°45' E 013°57'0 0.0
2014-Jul-15 01:29N 40°45' E 013°57'0 0.0
2014-Jul-15 00:32N 40°45' E 013°57'0 0.0
2014-Jul-14 23:32N 40°45' E 013°57'0 0.0
2014-Jul-14 22:32N 40°45' E 013°57'0 0.0
2014-Jul-14 21:29N 40°45' E 013°57'0 0.0
2014-Jul-14 20:29N 40°45' E 013°57'0 0.0
2014-Jul-14 19:32N 40°45' E 013°57'0 0.0
2014-Jul-14 18:33N 40°45' E 013°57'2 1.6
2014-Jul-14 17:33N 40°46' E 013°55'1 1.0
2014-Jul-14 16:32N 40°45' E 013°53'0 0.0
2014-Jul-14 15:32N 40°45' E 013°53'0 0.0
2014-Jul-14 14:32N 40°45' E 013°53'0 0.0
2014-Jul-14 13:32N 40°45' E 013°53'0 0.0
2014-Jul-14 12:32N 40°45' E 013°53'0 0.0
2014-Jul-14 11:29N 40°45' E 013°53'0 0.0
2014-Jul-14 10:32N 40°45' E 013°53'0 0.0
2014-Jul-14 09:32N 40°45' E 013°53'0 0.0
2014-Jul-14 08:29N 40°45' E 013°53'6 6.8
2014-Jul-14 07:33N 40°44' E 014°01'1212.0
2014-Jul-14 06:33N 40°43' E 014°17'8 8.3
2014-Jul-14 05:32N 40°43' E 014°28'0 0.0
2014-Jul-13 14:12N 40°43' E 014°28'0 0.0
2014-Jul-13 13:18N 40°43' E 014°28'0 0.0
2014-Jul-13 12:33N 40°43' E 014°28'0 0.0
2014-Jul-13 11:18N 40°43' E 014°28'0 0.0
2014-Jul-13 10:33N 40°43' E 014°28'0 0.0
2014-Jul-13 09:09N 40°43' E 014°28'0 0.0
2014-Jul-13 08:27N 40°43' E 014°28'0 0.0
2014-Jul-13 07:33N 40°43' E 014°28'0 0.0
2014-Jul-13 06:06N 40°43' E 014°28'0 0.0
2014-Jul-13 05:21N 40°43' E 014°28'0 0.0
2014-Jul-13 04:24N 40°43' E 014°28'0 0.0
2014-Jul-13 03:27N 40°43' E 014°28'0 0.0
2014-Jul-13 02:33N 40°43' E 014°28'0 0.0
2014-Jul-13 01:33N 40°43' E 014°28'0 0.0
2014-Jul-13 00:27N 40°43' E 014°28'0 0.0
2014-Jul-12 23:33N 40°43' E 014°28'0 0.0
2014-Jul-12 22:33N 40°43' E 014°28'0 0.0
2014-Jul-12 21:30N 40°43' E 014°28'0 0.0
2014-Jul-12 20:33N 40°43' E 014°28'0 0.0
2014-Jul-12 19:18N 40°43' E 014°28'0 0.0
2014-Jul-12 18:27N 40°43' E 014°28'0 0.0
2014-Jul-12 17:24N 40°43' E 014°28'0 0.0
2014-Jul-12 16:21N 40°43' E 014°28'0 0.0
2014-Jul-12 15:30N 40°43' E 014°28'0 0.0
2014-Jul-12 14:24N 40°43' E 014°28'0 0.0
2014-Jul-12 13:30N 40°43' E 014°28'0 0.0
2014-Jul-12 12:27N 40°43' E 014°28'0 0.0
2014-Jul-12 11:30N 40°43' E 014°28'0 0.0
2014-Jul-12 09:24N 40°43' E 014°28'0 0.0
2014-Jul-12 08:21N 40°43' E 014°28'0 0.0
2014-Jul-12 03:30N 40°43' E 014°28'0 0.0
2014-Jul-12 02:27N 40°43' E 014°28'0 0.0
2014-Jul-12 01:09N 40°43' E 014°28'0 0.0
2014-Jul-12 00:15N 40°43' E 014°28'0 0.0
2014-Jul-11 23:15N 40°43' E 014°28'0 0.0
2014-Jul-11 22:33N 40°43' E 014°28'0 0.0
2014-Jul-11 21:33N 40°43' E 014°28'0 0.0
2014-Jul-11 20:24N 40°43' E 014°28'0 0.0
2014-Jul-11 19:33N 40°43' E 014°28'0 0.0
2014-Jul-11 18:24N 40°43' E 014°28'0 0.0
2014-Jul-11 17:27N 40°43' E 014°28'0 0.0
2014-Jul-11 16:30N 40°43' E 014°28'0 0.0
2014-Jul-11 15:03N 40°43' E 014°28'0 0.0
2014-Jul-11 14:27N 40°43' E 014°28'0 0.0
2014-Jul-11 13:18N 40°43' E 014°28'0 0.0
2014-Jul-11 12:18N 40°43' E 014°28'0 0.0
2014-Jul-11 11:30N 40°43' E 014°28'0 0.0
2014-Jul-11 10:21N 40°43' E 014°28'0 0.0
2014-Jul-11 09:33N 40°43' E 014°28'0 0.0
2014-Jul-11 08:33N 40°43' E 014°28'0 0.0
2014-Jul-11 07:24N 40°43' E 014°28'0 0.0
2014-Jul-11 05:27N 40°43' E 014°28'0 0.0
2014-Jul-11 04:06N 40°43' E 014°28'0 0.0
2014-Jul-11 02:12N 40°43' E 014°28'0 0.0
2014-Jul-11 01:27N 40°43' E 014°28'0 0.0
2014-Jul-11 00:12N 40°43' E 014°28'0 0.0
2014-Jul-10 23:33N 40°43' E 014°28'0 0.0
2014-Jul-10 22:33N 40°43' E 014°28'0 0.0
2014-Jul-10 21:24N 40°43' E 014°28'0 0.0
2014-Jul-10 20:18N 40°43' E 014°28'0 0.0
2014-Jul-10 19:24N 40°43' E 014°28'0 0.0
2014-Jul-10 18:18N 40°43' E 014°28'0 0.0
2014-Jul-10 17:24N 40°43' E 014°28'0 0.0
2014-Jul-10 16:12N 40°43' E 014°28'0 0.0
2014-Jul-10 15:24N 40°43' E 014°28'0 0.0
2014-Jul-10 14:33N 40°43' E 014°28'  
Track history (hours):
 
Tides and Currents Weather Stations Pressure Air Temp Water Temp Dewpoint Dewpoint Depression Visibility Wind Speed Wind Dir Waves Ship Positions

Hana

Last reported at 2014-Jul-20 14:26 UTC. Time now 2014-Aug-22 09:55 UTC.
Position N 38°15' E 015°43'.
Warning: this ship's position is 32 days out of date.

Length 43 m; draft 2.7 m.

Type: Pleasure craft. MMSI: 235065022.

Date/timePositionNaut miles runAvg speedWind from/ knotsBaromVisibWave heightAir tempDewpointWater temp
2014-Jul-20 14:26N 38°15' E 015°43'1111.7
2014-Jul-20 13:29N 38°19' E 015°30'  
2014-Jul-18 01:32N 40°28' E 014°33'9 3.6
2014-Jul-17 23:03N 40°37' E 014°30'610.1
2014-Jul-17 22:28N 40°35' E 014°22'6 7.1
2014-Jul-17 21:33N 40°34' E 014°14'0 0.0
2014-Jul-17 20:33N 40°34' E 014°14'0 0.0
2014-Jul-17 19:33N 40°34' E 014°14'0 0.0
2014-Jul-17 18:33N 40°34' E 014°14'0 0.0
2014-Jul-17 17:33N 40°34' E 014°14'0 0.0
2014-Jul-17 16:33N 40°34' E 014°14'0 0.0
2014-Jul-17 15:33N 40°34' E 014°14'0 0.0
2014-Jul-17 14:33N 40°34' E 014°14'0 0.0
2014-Jul-17 13:33N 40°34' E 014°14'0 0.0
2014-Jul-17 12:33N 40°34' E 014°14'0 0.0
2014-Jul-17 11:34N 40°34' E 014°14'0 0.1
2014-Jul-17 10:33N 40°34' E 014°14'1 0.5
2014-Jul-17 09:33N 40°34' E 014°14'2 1.9
2014-Jul-17 08:33N 40°32' E 014°13'0 0.0
2014-Jul-17 07:33N 40°32' E 014°13'5 0.4
2014-Jul-16 16:33N 40°36' E 014°08'1010.0
2014-Jul-16 15:33N 40°44' E 014°00'0 0.3
2014-Jul-16 14:32N 40°45' E 014°00'0 0.0
2014-Jul-16 13:32N 40°45' E 014°00'0 0.0
2014-Jul-16 12:29N 40°45' E 014°00'0 0.0
2014-Jul-16 11:29N 40°45' E 014°00'0 0.0
2014-Jul-16 10:29N 40°45' E 014°00'1 1.2
2014-Jul-16 09:33N 40°44' E 013°59'4 3.8
2014-Jul-16 08:23N 40°45' E 013°53'0 0.0
2014-Jul-16 07:17N 40°45' E 013°53'0 0.0
2014-Jul-16 06:26N 40°45' E 013°53'0 0.0
2014-Jul-16 05:26N 40°45' E 013°53'0 0.0
2014-Jul-16 04:32N 40°45' E 013°53'0 0.0
2014-Jul-16 03:32N 40°45' E 013°53'0 0.0
2014-Jul-16 02:32N 40°45' E 013°53'0 0.0
2014-Jul-16 01:32N 40°45' E 013°53'0 0.0
2014-Jul-16 00:32N 40°45' E 013°53'0 0.0
2014-Jul-15 23:33N 40°45' E 013°53'1 0.8
2014-Jul-15 22:23N 40°46' E 013°52'0 0.0
2014-Jul-15 21:32N 40°46' E 013°52'0 0.1
2014-Jul-15 20:33N 40°46' E 013°52'1 0.7
2014-Jul-15 19:26N 40°45' E 013°53'0 0.0
2014-Jul-15 18:32N 40°45' E 013°53'0 0.0
2014-Jul-15 17:32N 40°45' E 013°53'0 0.0
2014-Jul-15 16:32N 40°45' E 013°53'0 0.0
2014-Jul-15 15:32N 40°45' E 013°53'0 0.0
2014-Jul-15 14:32N 40°45' E 013°53'0 0.0
2014-Jul-15 13:32N 40°45' E 013°53'0 0.0
2014-Jul-15 12:32N 40°45' E 013°53'0 0.0
2014-Jul-15 11:32N 40°45' E 013°53'0 0.0
2014-Jul-15 10:29N 40°45' E 013°53'0 0.0
2014-Jul-15 09:32N 40°45' E 013°53'2 1.8
2014-Jul-15 08:33N 40°45' E 013°56'1 0.8
2014-Jul-15 07:26N 40°45' E 013°57'0 0.0
2014-Jul-15 06:32N 40°45' E 013°57'0 0.0
2014-Jul-15 05:29N 40°45' E 013°57'0 0.0
2014-Jul-15 04:32N 40°45' E 013°57'0 0.0
2014-Jul-15 03:26N 40°45' E 013°57'0 0.0
2014-Jul-15 02:32N 40°45' E 013°57'0 0.0
2014-Jul-15 01:29N 40°45' E 013°57'0 0.0
2014-Jul-15 00:32N 40°45' E 013°57'0 0.0
2014-Jul-14 23:32N 40°45' E 013°57'0 0.0
2014-Jul-14 22:32N 40°45' E 013°57'0 0.0
2014-Jul-14 21:29N 40°45' E 013°57'0 0.0
2014-Jul-14 20:29N 40°45' E 013°57'0 0.0
2014-Jul-14 19:32N 40°45' E 013°57'0 0.0
2014-Jul-14 18:33N 40°45' E 013°57'2 1.6
2014-Jul-14 17:33N 40°46' E 013°55'1 1.0
2014-Jul-14 16:32N 40°45' E 013°53'0 0.0
2014-Jul-14 15:32N 40°45' E 013°53'0 0.0
2014-Jul-14 14:32N 40°45' E 013°53'0 0.0
2014-Jul-14 13:32N 40°45' E 013°53'0 0.0
2014-Jul-14 12:32N 40°45' E 013°53'0 0.0
2014-Jul-14 11:29N 40°45' E 013°53'0 0.0
2014-Jul-14 10:32N 40°45' E 013°53'0 0.0
2014-Jul-14 09:32N 40°45' E 013°53'0 0.0
2014-Jul-14 08:29N 40°45' E 013°53'6 6.8
2014-Jul-14 07:33N 40°44' E 014°01'1212.0
2014-Jul-14 06:33N 40°43' E 014°17'8 8.3
2014-Jul-14 05:32N 40°43' E 014°28'0 0.0
2014-Jul-13 14:12N 40°43' E 014°28'0 0.0
2014-Jul-13 13:18N 40°43' E 014°28'0 0.0
2014-Jul-13 12:33N 40°43' E 014°28'0 0.0
2014-Jul-13 11:18N 40°43' E 014°28'0 0.0
2014-Jul-13 10:33N 40°43' E 014°28'0 0.0
2014-Jul-13 09:09N 40°43' E 014°28'0 0.0
2014-Jul-13 08:27N 40°43' E 014°28'0 0.0
2014-Jul-13 07:33N 40°43' E 014°28'0 0.0
2014-Jul-13 06:06N 40°43' E 014°28'0 0.0
2014-Jul-13 05:21N 40°43' E 014°28'0 0.0
2014-Jul-13 04:24N 40°43' E 014°28'0 0.0
2014-Jul-13 03:27N 40°43' E 014°28'0 0.0
2014-Jul-13 02:33N 40°43' E 014°28'0 0.0
2014-Jul-13 01:33N 40°43' E 014°28'0 0.0
2014-Jul-13 00:27N 40°43' E 014°28'0 0.0
2014-Jul-12 23:33N 40°43' E 014°28'0 0.0
2014-Jul-12 22:33N 40°43' E 014°28'0 0.0
2014-Jul-12 21:30N 40°43' E 014°28'0 0.0
2014-Jul-12 20:33N 40°43' E 014°28'0 0.0
2014-Jul-12 19:18N 40°43' E 014°28'0 0.0
2014-Jul-12 18:27N 40°43' E 014°28'0 0.0
2014-Jul-12 17:24N 40°43' E 014°28'0 0.0
2014-Jul-12 16:21N 40°43' E 014°28'0 0.0
2014-Jul-12 15:30N 40°43' E 014°28'0 0.0
2014-Jul-12 14:24N 40°43' E 014°28'0 0.0
2014-Jul-12 13:30N 40°43' E 014°28'0 0.0
2014-Jul-12 12:27N 40°43' E 014°28'0 0.0
2014-Jul-12 11:30N 40°43' E 014°28'0 0.0
2014-Jul-12 09:24N 40°43' E 014°28'0 0.0
2014-Jul-12 08:21N 40°43' E 014°28'0 0.0
2014-Jul-12 03:30N 40°43' E 014°28'0 0.0
2014-Jul-12 02:27N 40°43' E 014°28'0 0.0
2014-Jul-12 01:09N 40°43' E 014°28'0 0.0
2014-Jul-12 00:15N 40°43' E 014°28'0 0.0
2014-Jul-11 23:15N 40°43' E 014°28'0 0.0
2014-Jul-11 22:33N 40°43' E 014°28'0 0.0
2014-Jul-11 21:33N 40°43' E 014°28'0 0.0
2014-Jul-11 20:24N 40°43' E 014°28'0 0.0
2014-Jul-11 19:33N 40°43' E 014°28'0 0.0
2014-Jul-11 18:24N 40°43' E 014°28'0 0.0
2014-Jul-11 17:27N 40°43' E 014°28'0 0.0
2014-Jul-11 16:30N 40°43' E 014°28'0 0.0
2014-Jul-11 15:03N 40°43' E 014°28'0 0.0
2014-Jul-11 14:27N 40°43' E 014°28'0 0.0
2014-Jul-11 13:18N 40°43' E 014°28'0 0.0
2014-Jul-11 12:18N 40°43' E 014°28'0 0.0
2014-Jul-11 11:30N 40°43' E 014°28'0 0.0
2014-Jul-11 10:21N 40°43' E 014°28'0 0.0
2014-Jul-11 09:33N 40°43' E 014°28'0 0.0
2014-Jul-11 08:33N 40°43' E 014°28'0 0.0
2014-Jul-11 07:24N 40°43' E 014°28'0 0.0
2014-Jul-11 05:27N 40°43' E 014°28'0 0.0
2014-Jul-11 04:06N 40°43' E 014°28'0 0.0
2014-Jul-11 02:12N 40°43' E 014°28'0 0.0
2014-Jul-11 01:27N 40°43' E 014°28'0 0.0
2014-Jul-11 00:12N 40°43' E 014°28'0 0.0
2014-Jul-10 23:33N 40°43' E 014°28'0 0.0
2014-Jul-10 22:33N 40°43' E 014°28'0 0.0
2014-Jul-10 21:24N 40°43' E 014°28'0 0.0
2014-Jul-10 20:18N 40°43' E 014°28'0 0.0
2014-Jul-10 19:24N 40°43' E 014°28'0 0.0
2014-Jul-10 18:18N 40°43' E 014°28'0 0.0
2014-Jul-10 17:24N 40°43' E 014°28'0 0.0
2014-Jul-10 16:12N 40°43' E 014°28'0 0.0
2014-Jul-10 15:24N 40°43' E 014°28'0 0.0
2014-Jul-10 14:33N 40°43' E 014°28'  

Dump ship's entire track history